Time;durP1;ratioP1;P1;durP2;ratioP2;P2;SDS_P1;SDS_P2;PMS_P1;PMS_P2;Temp;Humidity;BMP_temperature;BMP_pressure;BME280_temperature;BME280_humidity;BME280_pressure;Samples;Min_cycle;Max_cycle;Signal;HPM_P1;HPM_P2
2021/05/25 00:01:51;;;;;;;504.67;326.67;;;;;;;;;;5003518;28;20093;-78
2021/05/25 00:04:17;;;;;;;501.73;328.48;;;;;;;;;;5005148;28;20340;-77
2021/05/25 00:06:43;;;;;;;498.02;325.58;;;;;;;;;;4988247;28;20100;-78
2021/05/25 00:09:09;;;;;;;509.73;326.02;;;;;;;;;;4989654;28;20049;-78
2021/05/25 00:11:35;;;;;;;505.20;329.10;;;;;;;;;;4986029;28;20018;-76
2021/05/25 00:14:03;;;;;;;530.63;345.83;;;;;;;;;;4984885;28;20109;-78
2021/05/25 00:16:31;;;;;;;510.25;325.23;;;;;;;;;;5002881;28;20022;-78
2021/05/25 00:18:57;;;;;;;515.42;331.88;;;;;;;;;;5000125;28;20026;-77
2021/05/25 00:21:23;;;;;;;514.45;329.50;;;;;;;;;;4986775;28;20022;-78
2021/05/25 00:23:49;;;;;;;514.30;333.13;;;;;;;;;;4992514;28;20135;-78
2021/05/25 00:26:15;;;;;;;517.30;339.27;;;;;;;;;;4988902;28;20048;-76
2021/05/25 00:28:41;;;;;;;517.08;330.08;;;;;;;;;;4991941;28;20030;-78
2021/05/25 00:31:07;;;;;;;525.25;345.67;;;;;;;;;;4985709;28;20386;-75
2021/05/25 00:33:33;;;;;;;528.15;348.00;;;;;;;;;;4991110;28;20028;-77
2021/05/25 00:36:00;;;;;;;529.08;341.90;;;;;;;;;;4988279;28;20014;-77
2021/05/25 00:38:26;;;;;;;520.15;332.92;;;;;;;;;;4986258;28;20502;-77
2021/05/25 00:40:52;;;;;;;513.58;325.98;;;;;;;;;;5005296;28;20026;-77
2021/05/25 00:43:18;;;;;;;511.55;328.90;;;;;;;;;;4987460;28;20026;-78
2021/05/25 00:45:44;;;;;;;512.05;326.35;;;;;;;;;;4982804;28;20048;-78
2021/05/25 00:48:09;;;;;;;523.10;336.00;;;;;;;;;;4999358;28;20040;-78
2021/05/25 00:50:37;;;;;;;523.03;342.35;;;;;;;;;;4988943;28;20385;-76
2021/05/25 00:53:03;;;;;;;511.10;325.42;;;;;;;;;;5005884;28;20471;-76
2021/05/25 00:55:34;;;;;;;518.30;330.55;;;;;;;;;;4979949;28;20030;-78
2021/05/25 00:58:01;;;;;;;;;;;;;;;;;;4989070;28;20051;-77
2021/05/25 01:00:34;;;;;;;515.50;319.70;;;;;;;;;;4988752;28;19912;-78
2021/05/25 01:03:01;;;;;;;518.53;332.60;;;;;;;;;;4988263;28;20105;-77
2021/05/25 01:05:26;;;;;;;517.47;333.10;;;;;;;;;;4989256;28;20628;-76
2021/05/25 01:07:53;;;;;;;520.45;333.25;;;;;;;;;;5000564;28;20038;-76
2021/05/25 01:10:27;;;;;;;519.53;324.63;;;;;;;;;;4989656;28;20021;-78
2021/05/25 01:12:56;;;;;;;524.35;323.70;;;;;;;;;;4987322;28;20048;-77
2021/05/25 01:15:24;;;;;;;513.28;325.80;;;;;;;;;;5007760;28;20014;-78
2021/05/25 01:17:52;;;;;;;509.33;315.10;;;;;;;;;;4986562;28;20075;-77
2021/05/25 01:20:19;;;;;;;508.75;322.55;;;;;;;;;;4989851;28;20368;-77
2021/05/25 01:22:45;;;;;;;501.60;315.38;;;;;;;;;;4984820;28;20033;-79
2021/05/25 01:25:12;;;;;;;499.20;309.17;;;;;;;;;;4999101;28;20021;-77
2021/05/25 01:27:38;;;;;;;499.10;312.77;;;;;;;;;;4989338;28;20056;-79
2021/05/25 01:30:06;;;;;;;502.90;315.90;;;;;;;;;;4985790;28;20709;-79
2021/05/25 01:32:32;;;;;;;496.65;312.52;;;;;;;;;;5001107;28;20032;-78
2021/05/25 01:34:58;;;;;;;495.17;312.02;;;;;;;;;;4985233;28;20428;-78
2021/05/25 01:37:24;;;;;;;499.23;320.88;;;;;;;;;;5004029;28;21345;-78
2021/05/25 01:39:54;;;;;;;501.80;307.15;;;;;;;;;;4982977;28;20030;-78
2021/05/25 01:42:20;;;;;;;530.45;339.55;;;;;;;;;;4985102;28;20451;-78
2021/05/25 01:44:46;;;;;;;547.22;341.58;;;;;;;;;;4988028;28;20033;-80
2021/05/25 01:47:12;;;;;;;535.55;330.55;;;;;;;;;;5001161;28;20019;-78
2021/05/25 01:49:41;;;;;;;517.90;316.73;;;;;;;;;;4986927;28;20469;-77
2021/05/25 01:52:07;;;;;;;510.02;309.67;;;;;;;;;;4988545;28;21332;-79
2021/05/25 01:54:33;;;;;;;514.50;323.98;;;;;;;;;;5004207;28;20018;-78
2021/05/25 01:56:59;;;;;;;520.40;324.85;;;;;;;;;;4989005;28;20026;-78
2021/05/25 01:59:25;;;;;;;511.70;317.42;;;;;;;;;;4986036;28;20094;-77
2021/05/25 02:01:51;;;;;;;511.20;321.27;;;;;;;;;;5003199;28;20038;-77
2021/05/25 02:04:17;;;;;;;518.55;320.60;;;;;;;;;;4985756;28;20022;-77
2021/05/25 02:06:43;;;;;;;514.47;325.10;;;;;;;;;;4984665;28;20030;-78
2021/05/25 02:09:09;;;;;;;509.38;320.17;;;;;;;;;;4984485;28;20060;-77
2021/05/25 02:11:36;;;;;;;510.08;315.88;;;;;;;;;;4989364;28;20063;-78
2021/05/25 02:14:02;;;;;;;510.63;319.40;;;;;;;;;;4985164;28;20046;-77
2021/05/25 02:16:28;;;;;;;514.28;332.33;;;;;;;;;;4986755;28;20061;-77
2021/05/25 02:18:54;;;;;;;503.15;316.08;;;;;;;;;;5005341;28;20502;-76
2021/05/25 02:21:21;;;;;;;513.45;324.83;;;;;;;;;;4982663;28;20030;-78
2021/05/25 02:23:47;;;;;;;513.03;320.30;;;;;;;;;;4988481;28;20390;-78
2021/05/25 02:26:14;;;;;;;544.25;334.35;;;;;;;;;;4990021;28;20381;-76
2021/05/25 02:28:40;;;;;;;516.05;329.13;;;;;;;;;;4985720;28;20091;-77
2021/05/25 02:31:06;;;;;;;507.38;319.05;;;;;;;;;;4972171;28;20026;-78
2021/05/25 02:33:33;;;;;;;509.08;312.65;;;;;;;;;;4974849;28;20091;-78
2021/05/25 02:35:59;;;;;;;517.03;334.67;;;;;;;;;;4983660;28;20155;-76
2021/05/25 02:38:26;;;;;;;515.65;324.00;;;;;;;;;;4975516;28;20550;-78
2021/05/25 02:40:52;;;;;;;507.05;308.55;;;;;;;;;;4974967;28;20321;-77
2021/05/25 02:43:19;;;;;;;512.33;322.20;;;;;;;;;;4983329;28;20040;-76
2021/05/25 02:45:45;;;;;;;514.88;319.20;;;;;;;;;;4981125;28;20458;-77
2021/05/25 02:48:11;;;;;;;510.50;321.63;;;;;;;;;;4974345;28;20141;-78
2021/05/25 02:50:38;;;;;;;491.65;309.73;;;;;;;;;;4981676;28;20109;-77
2021/05/25 02:53:04;;;;;;;520.60;328.88;;;;;;;;;;4981428;28;20030;-77
2021/05/25 02:55:31;;;;;;;528.58;329.02;;;;;;;;;;5003696;28;20026;-77
2021/05/25 02:57:58;;;;;;;516.03;318.08;;;;;;;;;;5004217;28;20033;-79
2021/05/25 03:00:25;;;;;;;521.67;319.27;;;;;;;;;;4986928;28;20046;-78
2021/05/25 03:02:51;;;;;;;515.03;318.55;;;;;;;;;;4986476;28;20022;-76
2021/05/25 03:05:22;;;;;;;523.70;328.48;;;;;;;;;;4980115;28;20473;-75
2021/05/25 03:07:48;;;;;;;;;;;;;;;;;;4996442;28;20227;-77
2021/05/25 03:10:16;;;;;;;508.58;295.90;;;;;;;;;;4981761;28;19914;-78
2021/05/25 03:12:42;;;;;;;524.30;327.95;;;;;;;;;;4985206;28;20464;-76
2021/05/25 03:15:10;;;;;;;508.58;313.42;;;;;;;;;;4998916;28;20029;-77
2021/05/25 03:17:36;;;;;;;508.13;315.92;;;;;;;;;;5004094;28;20094;-76
2021/05/25 03:20:02;;;;;;;583.00;348.85;;;;;;;;;;4993773;28;20010;-77
2021/05/25 03:22:28;;;;;;;580.92;355.17;;;;;;;;;;4983129;28;20075;-78
2021/05/25 03:24:54;;;;;;;559.40;343.48;;;;;;;;;;5003870;28;20021;-77
2021/05/25 03:27:20;;;;;;;551.42;340.17;;;;;;;;;;4990324;28;20048;-75
2021/05/25 03:29:46;;;;;;;481.00;304.35;;;;;;;;;;4988799;28;20026;-76
2021/05/25 03:32:12;;;;;;;475.25;300.63;;;;;;;;;;4985593;28;20128;-76
2021/05/25 03:34:38;;;;;;;486.88;307.30;;;;;;;;;;4977131;28;20360;-77
2021/05/25 03:37:04;;;;;;;473.60;296.27;;;;;;;;;;4996125;28;20019;-76
2021/05/25 03:39:30;;;;;;;469.98;298.13;;;;;;;;;;4988561;28;20462;-77
2021/05/25 03:41:59;;;;;;;468.02;298.50;;;;;;;;;;4980095;28;20030;-76
2021/05/25 03:44:25;;;;;;;475.38;307.17;;;;;;;;;;4996958;28;20105;-77
2021/05/25 03:46:51;;;;;;;462.50;289.33;;;;;;;;;;4975286;28;20371;-79
2021/05/25 03:49:17;;;;;;;464.48;294.17;;;;;;;;;;5003258;28;20051;-78
2021/05/25 03:51:43;;;;;;;472.83;297.88;;;;;;;;;;4998357;28;20018;-76
2021/05/25 03:54:20;;;;;;;470.50;303.00;;;;;;;;;;5001883;28;20113;-82
2021/05/25 03:56:53;;;;;;;466.13;290.98;;;;;;;;;;5003728;28;20029;-78
2021/05/25 03:59:19;;;;;;;472.25;295.55;;;;;;;;;;4986224;28;20034;-78
2021/05/25 04:01:46;;;;;;;457.70;286.25;;;;;;;;;;5002576;28;20038;-78
2021/05/25 04:04:13;;;;;;;460.02;290.75;;;;;;;;;;4985323;28;20395;-75
2021/05/25 04:06:39;;;;;;;455.10;290.80;;;;;;;;;;4999926;28;20361;-79
2021/05/25 04:09:06;;;;;;;457.23;292.92;;;;;;;;;;4977987;28;20057;-80
2021/05/25 04:11:34;;;;;;;450.92;293.05;;;;;;;;;;5006253;28;20018;-80
2021/05/25 04:14:00;;;;;;;450.02;293.42;;;;;;;;;;5002482;28;20347;-80
2021/05/25 04:16:26;;;;;;;456.27;293.27;;;;;;;;;;4979901;28;20113;-80
2021/05/25 04:18:53;;;;;;;448.48;289.85;;;;;;;;;;4988495;28;20344;-79
2021/05/25 04:21:19;;;;;;;454.60;294.33;;;;;;;;;;4991566;28;20030;-80
2021/05/25 04:23:46;;;;;;;453.20;296.80;;;;;;;;;;5003646;28;20112;-79
2021/05/25 04:26:12;;;;;;;458.80;295.30;;;;;;;;;;4972972;28;20117;-78
2021/05/25 04:28:38;;;;;;;456.13;286.35;;;;;;;;;;4987935;28;20396;-78
2021/05/25 04:31:16;;;;;;;448.38;280.52;;;;;;;;;;4982646;28;20022;-85
2021/05/25 04:33:45;;;;;;;460.67;295.13;;;;;;;;;;4989275;28;20026;-80
2021/05/25 04:36:11;;;;;;;452.10;284.77;;;;;;;;;;4983008;28;20029;-77
2021/05/25 04:38:37;;;;;;;451.63;285.52;;;;;;;;;;4982431;28;20042;-77
2021/05/25 04:41:03;;;;;;;454.35;283.88;;;;;;;;;;4985570;28;20050;-76
2021/05/25 04:43:29;;;;;;;453.02;287.90;;;;;;;;;;4982354;28;20030;-77
2021/05/25 04:45:55;;;;;;;454.13;287.23;;;;;;;;;;4981026;28;20118;-79
2021/05/25 04:48:21;;;;;;;459.85;296.02;;;;;;;;;;4989874;28;20410;-77
2021/05/25 04:50:47;;;;;;;454.60;291.52;;;;;;;;;;4980440;28;20265;-75
2021/05/25 04:53:13;;;;;;;461.02;292.90;;;;;;;;;;5001599;28;20025;-76
2021/05/25 04:55:40;;;;;;;457.67;287.23;;;;;;;;;;5000492;28;20345;-77
2021/05/25 04:58:06;;;;;;;464.65;295.75;;;;;;;;;;4996358;28;20038;-77
2021/05/25 05:00:32;;;;;;;465.63;293.35;;;;;;;;;;4980577;28;20023;-76
2021/05/25 05:02:58;;;;;;;470.33;299.50;;;;;;;;;;4980614;28;20445;-76
2021/05/25 05:05:25;;;;;;;470.80;296.25;;;;;;;;;;4979154;28;20034;-77
2021/05/25 05:07:51;;;;;;;471.60;298.90;;;;;;;;;;5002541;28;20045;-76
2021/05/25 05:10:18;;;;;;;468.40;297.88;;;;;;;;;;4979056;28;20022;-78
2021/05/25 05:12:44;;;;;;;469.88;299.15;;;;;;;;;;4982246;28;20049;-76
2021/05/25 05:15:10;;;;;;;472.77;294.15;;;;;;;;;;4979946;28;20037;-77
2021/05/25 05:17:37;;;;;;;475.85;297.50;;;;;;;;;;4999022;28;20436;-77
2021/05/25 05:20:07;;;;;;;485.40;297.05;;;;;;;;;;4985609;28;20107;-77
2021/05/25 05:22:33;;;;;;;482.77;293.35;;;;;;;;;;4984826;28;20061;-76
2021/05/25 05:24:59;;;;;;;482.75;296.08;;;;;;;;;;4997529;28;20884;-76
2021/05/25 05:27:25;;;;;;;487.98;297.15;;;;;;;;;;4980933;28;20026;-76
2021/05/25 05:29:51;;;;;;;494.63;304.20;;;;;;;;;;4996764;28;20049;-76
2021/05/25 05:32:17;;;;;;;487.45;298.52;;;;;;;;;;4982150;28;20030;-78
2021/05/25 05:34:43;;;;;;;488.30;304.77;;;;;;;;;;4979518;28;20037;-77
2021/05/25 05:37:09;;;;;;;492.38;299.48;;;;;;;;;;4989473;28;20029;-77
2021/05/25 05:39:35;;;;;;;488.40;304.08;;;;;;;;;;4981170;28;20359;-78
2021/05/25 05:42:01;;;;;;;489.73;302.92;;;;;;;;;;4983293;28;20108;-77
2021/05/25 05:44:27;;;;;;;486.70;299.50;;;;;;;;;;4982488;28;20793;-76
2021/05/25 05:46:53;;;;;;;491.27;302.83;;;;;;;;;;4978389;28;20023;-77
2021/05/25 05:49:22;;;;;;;488.17;302.73;;;;;;;;;;4996206;28;20046;-76
2021/05/25 05:51:48;;;;;;;490.00;304.30;;;;;;;;;;4977830;28;20019;-77
2021/05/25 05:54:14;;;;;;;484.55;304.30;;;;;;;;;;4978712;28;20095;-76
2021/05/25 05:56:40;;;;;;;489.10;305.02;;;;;;;;;;4983481;28;20029;-77
2021/05/25 05:59:06;;;;;;;489.08;305.05;;;;;;;;;;4979987;28;20110;-76
2021/05/25 06:01:32;;;;;;;492.00;303.00;;;;;;;;;;4978737;28;20437;-77
2021/05/25 06:03:58;;;;;;;495.35;307.52;;;;;;;;;;4985377;28;20087;-78
2021/05/25 06:06:24;;;;;;;495.25;308.40;;;;;;;;;;4998080;28;20105;-77
2021/05/25 06:08:50;;;;;;;494.30;305.42;;;;;;;;;;4981051;28;20125;-77
2021/05/25 06:11:16;;;;;;;501.23;317.70;;;;;;;;;;4979142;28;20022;-77
2021/05/25 06:13:42;;;;;;;498.83;311.27;;;;;;;;;;4985451;28;20021;-78
2021/05/25 06:16:08;;;;;;;475.77;305.92;;;;;;;;;;4982551;28;20041;-77
2021/05/25 06:18:35;;;;;;;471.83;304.63;;;;;;;;;;4999709;28;20022;-78
2021/05/25 06:21:01;;;;;;;474.48;307.77;;;;;;;;;;4978469;28;20027;-77
2021/05/25 06:23:28;;;;;;;474.25;308.20;;;;;;;;;;4980598;28;20021;-77
2021/05/25 06:25:54;;;;;;;470.23;304.08;;;;;;;;;;4995795;28;20027;-76
2021/05/25 06:28:20;;;;;;;472.83;308.10;;;;;;;;;;4980819;28;20046;-77
2021/05/25 06:30:46;;;;;;;478.00;315.25;;;;;;;;;;4995966;28;20027;-75
2021/05/25 06:33:12;;;;;;;475.67;314.40;;;;;;;;;;4999488;28;20027;-78
2021/05/25 06:35:38;;;;;;;473.10;305.48;;;;;;;;;;4994693;28;20030;-76
2021/05/25 06:38:04;;;;;;;476.83;308.63;;;;;;;;;;4978924;28;20075;-76
2021/05/25 06:40:30;;;;;;;476.90;311.45;;;;;;;;;;4999641;28;20061;-77
2021/05/25 06:42:56;;;;;;;479.55;314.30;;;;;;;;;;4987987;28;20018;-78
2021/05/25 06:45:25;;;;;;;479.45;310.20;;;;;;;;;;4992624;28;20026;-77
2021/05/25 06:47:51;;;;;;;482.52;316.40;;;;;;;;;;4977677;28;20117;-77
2021/05/25 06:50:17;;;;;;;482.90;313.85;;;;;;;;;;4981525;28;20155;-77
2021/05/25 06:52:43;;;;;;;488.73;315.98;;;;;;;;;;4995727;28;20033;-77
2021/05/25 06:55:09;;;;;;;462.17;313.50;;;;;;;;;;4998166;28;20029;-77
2021/05/25 06:57:35;;;;;;;464.02;310.17;;;;;;;;;;4984636;28;20036;-77
2021/05/25 07:00:02;;;;;;;465.92;317.50;;;;;;;;;;4994370;28;20317;-76
2021/05/25 07:02:27;;;;;;;465.73;311.38;;;;;;;;;;4996307;28;20407;-76
2021/05/25 07:04:54;;;;;;;465.55;314.73;;;;;;;;;;4987764;28;20053;-76
2021/05/25 07:07:20;;;;;;;462.92;313.02;;;;;;;;;;5000021;28;20107;-78
2021/05/25 07:09:47;;;;;;;461.63;317.90;;;;;;;;;;4982936;28;20547;-77
2021/05/25 07:12:13;;;;;;;471.38;320.05;;;;;;;;;;4985466;28;20022;-76
2021/05/25 07:14:39;;;;;;;465.17;314.40;;;;;;;;;;4985949;28;20026;-77
2021/05/25 07:17:05;;;;;;;466.30;323.15;;;;;;;;;;5003079;28;20037;-77
2021/05/25 07:19:31;;;;;;;462.58;316.00;;;;;;;;;;4996850;28;20046;-77
2021/05/25 07:21:57;;;;;;;471.25;322.23;;;;;;;;;;5004476;28;20036;-77
2021/05/25 07:24:23;;;;;;;469.98;326.75;;;;;;;;;;4999751;28;20034;-76
2021/05/25 07:26:49;;;;;;;466.10;319.15;;;;;;;;;;4984849;28;20026;-77
2021/05/25 07:29:15;;;;;;;471.20;315.58;;;;;;;;;;4998404;28;20490;-76
2021/05/25 07:31:42;;;;;;;473.05;317.08;;;;;;;;;;4983860;28;20060;-76
2021/05/25 07:34:08;;;;;;;460.75;312.52;;;;;;;;;;4986905;28;20066;-75
2021/05/25 07:36:33;;;;;;;464.13;315.35;;;;;;;;;;4980307;28;20030;-77
2021/05/25 07:38:59;;;;;;;462.15;315.50;;;;;;;;;;4987640;28;20374;-77
2021/05/25 07:41:26;;;;;;;460.17;313.42;;;;;;;;;;4984782;28;20029;-77
2021/05/25 07:43:51;;;;;;;463.88;317.45;;;;;;;;;;4983644;28;20014;-76
2021/05/25 07:46:18;;;;;;;458.88;315.00;;;;;;;;;;4984758;28;20609;-77
2021/05/25 07:48:44;;;;;;;462.35;316.23;;;;;;;;;;5003038;28;20057;-76
2021/05/25 07:51:11;;;;;;;460.38;315.65;;;;;;;;;;4980925;28;20033;-76
2021/05/25 07:53:37;;;;;;;459.83;311.95;;;;;;;;;;4976706;28;20033;-76
2021/05/25 07:56:03;;;;;;;461.70;318.92;;;;;;;;;;4985304;28;20105;-76
2021/05/25 07:58:29;;;;;;;461.88;322.02;;;;;;;;;;4980132;28;20030;-76
2021/05/25 08:00:55;;;;;;;465.35;322.70;;;;;;;;;;4984133;28;20075;-78
2021/05/25 08:03:21;;;;;;;460.95;317.60;;;;;;;;;;4999956;28;20106;-78
2021/05/25 08:05:48;;;;;;;462.75;316.45;;;;;;;;;;5002339;28;20022;-78
2021/05/25 08:08:14;;;;;;;456.63;310.75;;;;;;;;;;5005388;28;20468;-75
2021/05/25 08:10:40;;;;;;;466.48;328.08;;;;;;;;;;4982833;28;20040;-76
2021/05/25 08:13:06;;;;;;;461.50;320.83;;;;;;;;;;5002556;28;20018;-77
2021/05/25 08:15:33;;;;;;;461.85;321.60;;;;;;;;;;5003134;28;20022;-76
2021/05/25 08:20:38;;;;;;;465.00;321.48;;;;;;;;;;5003067;28;20076;-77
2021/05/25 08:23:06;;;;;;;464.70;327.77;;;;;;;;;;4999433;28;20050;-77
2021/05/25 08:25:32;;;;;;;465.10;324.25;;;;;;;;;;5001016;28;20421;-78
2021/05/25 08:28:00;;;;;;;469.15;333.45;;;;;;;;;;5003898;28;20072;-78
2021/05/25 08:30:28;;;;;;;461.75;325.92;;;;;;;;;;4994146;28;20516;-78
2021/05/25 08:32:55;;;;;;;462.95;328.38;;;;;;;;;;4994040;28;20026;-76
2021/05/25 08:35:23;;;;;;;466.55;333.05;;;;;;;;;;4986353;28;20022;-76
2021/05/25 08:37:50;;;;;;;461.80;325.25;;;;;;;;;;4984490;28;20119;-79
2021/05/25 08:40:17;;;;;;;464.77;331.50;;;;;;;;;;4981275;28;20014;-77
2021/05/25 08:42:44;;;;;;;469.80;340.08;;;;;;;;;;4993779;28;20018;-77
2021/05/25 08:45:11;;;;;;;464.30;334.95;;;;;;;;;;4996754;28;20029;-78
2021/05/25 08:47:37;;;;;;;466.67;338.30;;;;;;;;;;4998417;28;20433;-77
2021/05/25 08:50:04;;;;;;;465.65;342.75;;;;;;;;;;5000317;28;20033;-78
2021/05/25 08:52:30;;;;;;;470.45;350.88;;;;;;;;;;4981584;28;20050;-78
2021/05/25 08:54:56;;;;;;;468.25;354.02;;;;;;;;;;5000567;28;20063;-75
2021/05/25 08:57:22;;;;;;;473.70;361.55;;;;;;;;;;4996347;28;20023;-75
2021/05/25 08:59:48;;;;;;;468.77;352.70;;;;;;;;;;4999568;28;20025;-76
2021/05/25 09:02:15;;;;;;;470.70;363.77;;;;;;;;;;5017606;28;20343;-79
2021/05/25 09:04:58;;;;;;;469.95;356.77;;;;;;;;;;5009922;28;20611;-77
2021/05/25 09:07:40;;;;;;;474.35;361.42;;;;;;;;;;5008867;28;20077;-75
2021/05/25 09:10:08;;;;;;;466.50;350.48;;;;;;;;;;4986012;28;20482;-77
2021/05/25 09:12:39;;;;;;;468.77;355.70;;;;;;;;;;4991098;28;20025;-77
2021/05/25 09:15:06;;;;;;;469.02;354.80;;;;;;;;;;4983258;28;20060;-77
2021/05/25 09:17:32;;;;;;;470.27;358.73;;;;;;;;;;4984520;28;20097;-76
2021/05/25 09:19:59;;;;;;;464.10;342.05;;;;;;;;;;4982067;28;20121;-78
2021/05/25 09:22:29;;;;;;;467.38;345.70;;;;;;;;;;4982488;28;20505;-75
2021/05/25 09:24:55;;;;;;;;;;;;;;;;;;4988874;28;20014;-76
2021/05/25 09:27:32;;;;;;;453.17;310.42;;;;;;;;;;4997787;28;19917;-78
2021/05/25 09:30:12;;;;;;;461.35;319.83;;;;;;;;;;4983075;28;20570;-78
2021/05/25 09:32:53;;;;;;;462.67;324.33;;;;;;;;;;4975541;28;20117;-77
2021/05/25 09:35:21;;;;;;;462.27;319.63;;;;;;;;;;4986604;28;20765;-76
2021/05/25 09:37:51;;;;;;;460.80;320.95;;;;;;;;;;4998061;28;20034;-76
2021/05/25 09:40:18;;;;;;;460.95;321.63;;;;;;;;;;4977998;28;20050;-76
2021/05/25 09:42:49;;;;;;;463.02;325.73;;;;;;;;;;4995826;28;20018;-75
2021/05/25 09:45:16;;;;;;;458.70;314.33;;;;;;;;;;4982396;28;20430;-76
2021/05/25 09:47:53;;;;;;;465.17;318.52;;;;;;;;;;4978096;28;20030;-78
2021/05/25 09:50:20;;;;;;;462.50;320.73;;;;;;;;;;4998886;28;20029;-73
2021/05/25 09:53:06;;;;;;;464.83;324.27;;;;;;;;;;4994673;28;20018;-75
2021/05/25 09:55:46;;;;;;;465.77;323.65;;;;;;;;;;4976796;28;20026;-78
2021/05/25 09:58:12;;;;;;;462.35;315.95;;;;;;;;;;5002215;28;20018;-77
2021/05/25 10:00:39;;;;;;;463.95;322.27;;;;;;;;;;4998514;28;20336;-76
2021/05/25 10:03:14;;;;;;;459.08;314.33;;;;;;;;;;4985548;28;20045;-77
2021/05/25 10:05:47;;;;;;;464.60;323.98;;;;;;;;;;4996960;28;20452;-77
2021/05/25 10:08:15;;;;;;;467.02;327.75;;;;;;;;;;4976040;28;20033;-77
2021/05/25 10:10:41;;;;;;;464.45;326.30;;;;;;;;;;5005301;28;20521;-76
2021/05/25 10:13:11;;;;;;;460.38;323.17;;;;;;;;;;4979391;28;20052;-77
2021/05/25 10:15:37;;;;;;;457.88;316.33;;;;;;;;;;4996324;28;20041;-76
2021/05/25 10:20:29;;;;;;;462.90;329.45;;;;;;;;;;4995428;28;20486;-73
2021/05/25 10:22:56;;;;;;;469.38;338.80;;;;;;;;;;4980192;28;20397;-74
2021/05/25 10:25:25;;;;;;;471.80;343.30;;;;;;;;;;4998480;28;20026;-75
2021/05/25 10:27:51;;;;;;;467.63;338.67;;;;;;;;;;4994931;28;20022;-74
2021/05/25 10:30:23;;;;;;;471.60;344.65;;;;;;;;;;4983592;28;20055;-74
2021/05/25 10:32:53;;;;;;;469.08;332.65;;;;;;;;;;4999281;28;20033;-76
2021/05/25 10:35:20;;;;;;;465.65;326.77;;;;;;;;;;5002531;28;20034;-74
2021/05/25 10:38:04;;;;;;;468.05;332.48;;;;;;;;;;4993911;28;20047;-76
2021/05/25 10:40:56;;;;;;;474.88;337.98;;;;;;;;;;4979554;28;20065;-76
2021/05/25 10:43:35;;;;;;;478.05;343.70;;;;;;;;;;4978141;28;20617;-75
2021/05/25 10:46:10;;;;;;;479.45;355.83;;;;;;;;;;4979111;28;20010;-77
2021/05/25 10:48:50;;;;;;;477.65;365.60;;;;;;;;;;4994021;28;20033;-75
2021/05/25 10:51:16;;;;;;;480.35;365.35;;;;;;;;;;4993851;28;20049;-76
2021/05/25 10:53:44;;;;;;;477.55;358.95;;;;;;;;;;4994718;28;20025;-76
2021/05/25 10:56:26;;;;;;;489.50;363.02;;;;;;;;;;4999581;28;20047;-74
2021/05/25 10:59:02;;;;;;;494.70;362.38;;;;;;;;;;4990078;28;20032;-73
2021/05/25 11:01:31;;;;;;;493.35;369.02;;;;;;;;;;4996851;28;20034;-76
2021/05/25 11:04:12;;;;;;;492.95;369.27;;;;;;;;;;4990720;28;20024;-76
2021/05/25 11:06:39;;;;;;;482.83;363.15;;;;;;;;;;4992627;28;20093;-79
2021/05/25 11:09:24;;;;;;;478.20;371.25;;;;;;;;;;4980355;28;20038;-76
2021/05/25 11:12:10;;;;;;;479.67;374.48;;;;;;;;;;4981209;28;20387;-77
2021/05/25 11:14:36;;;;;;;488.88;405.08;;;;;;;;;;4976691;28;20038;-76
2021/05/25 11:17:20;;;;;;;485.40;419.85;;;;;;;;;;4979096;28;20011;-75
2021/05/25 11:19:57;;;;;;;497.25;442.70;;;;;;;;;;4977049;28;20049;-78
2021/05/25 11:22:37;;;;;;;511.30;456.63;;;;;;;;;;4973729;28;20032;-76
2021/05/25 11:25:06;;;;;;;521.97;466.85;;;;;;;;;;4978502;28;20061;-76
2021/05/25 11:27:34;;;;;;;532.25;477.05;;;;;;;;;;4976457;28;20017;-76
2021/05/25 11:30:14;;;;;;;535.17;479.77;;;;;;;;;;4980359;28;20030;-76
2021/05/25 11:32:45;;;;;;;525.10;470.35;;;;;;;;;;4982599;28;20031;-77
2021/05/25 11:35:15;;;;;;;519.03;464.10;;;;;;;;;;4979973;28;20034;-77
2021/05/25 11:37:44;;;;;;;491.97;438.17;;;;;;;;;;4977694;28;20041;-77
2021/05/25 11:40:12;;;;;;;482.08;417.05;;;;;;;;;;4981505;28;20265;-76
2021/05/25 11:42:39;;;;;;;476.75;403.08;;;;;;;;;;4976800;28;20707;-76
2021/05/25 11:45:08;;;;;;;477.58;398.63;;;;;;;;;;4974644;28;20062;-76
2021/05/25 11:47:34;;;;;;;475.67;388.10;;;;;;;;;;4975797;28;20058;-76
2021/05/25 11:50:00;;;;;;;474.73;386.27;;;;;;;;;;4982725;28;20336;-76
2021/05/25 11:52:28;;;;;;;471.92;380.35;;;;;;;;;;4986961;28;20058;-76
2021/05/25 11:54:56;;;;;;;472.23;378.88;;;;;;;;;;4980369;28;20306;-76
2021/05/25 11:57:23;;;;;;;472.98;375.60;;;;;;;;;;4990086;28;20332;-76
2021/05/25 11:59:49;;;;;;;475.20;380.13;;;;;;;;;;4982190;28;20023;-76
2021/05/25 12:02:22;;;;;;;479.63;403.50;;;;;;;;;;4983205;28;20644;-77
2021/05/25 12:04:50;;;;;;;479.33;407.00;;;;;;;;;;4985722;28;20087;-75
2021/05/25 12:07:20;;;;;;;482.45;397.38;;;;;;;;;;4975785;28;20126;-76
2021/05/25 12:09:45;;;;;;;474.02;390.17;;;;;;;;;;4983474;28;20026;-78
2021/05/25 12:12:11;;;;;;;485.08;403.77;;;;;;;;;;4978159;28;20026;-79
2021/05/25 12:14:38;;;;;;;488.42;414.83;;;;;;;;;;4977920;28;20018;-78
2021/05/25 12:17:04;;;;;;;484.15;428.02;;;;;;;;;;4984012;28;20018;-77
2021/05/25 12:19:31;;;;;;;494.33;439.98;;;;;;;;;;4978940;28;20073;-78
2021/05/25 12:22:01;;;;;;;499.45;430.50;;;;;;;;;;4974605;28;20037;-78
2021/05/25 12:24:28;;;;;;;489.45;417.48;;;;;;;;;;4974370;28;20385;-81
2021/05/25 12:26:55;;;;;;;487.02;407.73;;;;;;;;;;4964441;28;20432;-79
2021/05/25 12:29:22;;;;;;;485.15;399.25;;;;;;;;;;4984114;28;20188;-78
2021/05/25 12:31:48;;;;;;;484.75;398.08;;;;;;;;;;4982893;28;20031;-79
2021/05/25 12:34:17;;;;;;;483.17;414.10;;;;;;;;;;4973260;28;20034;-80
2021/05/25 12:36:53;;;;;;;494.95;435.40;;;;;;;;;;4974257;28;20030;-80
2021/05/25 12:39:30;;;;;;;504.08;449.48;;;;;;;;;;4983792;28;20193;-81
2021/05/25 12:41:58;;;;;;;528.28;473.15;;;;;;;;;;4984570;28;20022;-80
2021/05/25 12:44:31;;;;;;;538.03;483.10;;;;;;;;;;4977968;28;20084;-79
2021/05/25 12:46:59;;;;;;;539.65;484.50;;;;;;;;;;4983520;28;20068;-79
2021/05/25 12:49:35;;;;;;;544.85;489.80;;;;;;;;;;4977007;28;20039;-77
2021/05/25 12:52:21;;;;;;;524.38;469.60;;;;;;;;;;4978110;28;20038;-79
2021/05/25 12:55:01;;;;;;;495.40;441.10;;;;;;;;;;4983805;28;20031;-77
2021/05/25 12:57:46;;;;;;;483.05;420.20;;;;;;;;;;4985116;28;20022;-80
2021/05/25 13:00:13;;;;;;;476.27;399.52;;;;;;;;;;4981608;28;20033;-80
2021/05/25 13:02:47;;;;;;;492.20;404.48;;;;;;;;;;4980076;28;20014;-79
2021/05/25 13:05:14;;;;;;;475.23;386.67;;;;;;;;;;4979165;28;20080;-81
2021/05/25 13:07:54;;;;;;;474.75;385.60;;;;;;;;;;4973985;28;20086;-79
2021/05/25 13:10:30;;;;;;;472.55;378.77;;;;;;;;;;4981417;28;20027;-79
2021/05/25 13:13:07;;;;;;;471.77;379.02;;;;;;;;;;4986589;28;20079;-79
2021/05/25 13:15:36;;;;;;;475.25;379.05;;;;;;;;;;4975233;28;20030;-82
2021/05/25 13:18:02;;;;;;;470.80;373.05;;;;;;;;;;4974833;28;20019;-82
2021/05/25 13:20:29;;;;;;;475.65;381.70;;;;;;;;;;4969810;28;20023;-79
2021/05/25 13:22:55;;;;;;;479.23;398.20;;;;;;;;;;4972544;28;20123;-79
2021/05/25 13:25:29;;;;;;;479.50;405.27;;;;;;;;;;4975715;28;20027;-80
2021/05/25 13:27:55;;;;;;;481.65;407.63;;;;;;;;;;4977760;28;20019;-78
2021/05/25 13:30:34;;;;;;;484.08;405.75;;;;;;;;;;4971748;28;20038;-79
2021/05/25 13:33:02;;;;;;;481.10;405.75;;;;;;;;;;4981681;28;20343;-79
2021/05/25 13:35:28;;;;;;;488.00;406.65;;;;;;;;;;4973832;28;20529;-79
2021/05/25 13:37:54;;;;;;;473.23;388.27;;;;;;;;;;4975219;28;20022;-81
2021/05/25 13:40:20;;;;;;;480.15;388.45;;;;;;;;;;4976501;28;20503;-80
2021/05/25 13:42:46;;;;;;;472.45;376.40;;;;;;;;;;4976839;28;20018;-79
2021/05/25 13:45:13;;;;;;;475.25;386.73;;;;;;;;;;4980495;28;20344;-79
2021/05/25 13:47:39;;;;;;;478.13;388.27;;;;;;;;;;4978142;28;20113;-79
2021/05/25 13:50:23;;;;;;;479.52;394.23;;;;;;;;;;4979929;28;20176;-80
2021/05/25 13:52:50;;;;;;;478.95;397.83;;;;;;;;;;4975331;28;20022;-82
2021/05/25 13:55:19;;;;;;;480.33;399.58;;;;;;;;;;4981154;28;20019;-81
2021/05/25 13:57:46;;;;;;;480.05;398.88;;;;;;;;;;4978300;28;20014;-79
2021/05/25 14:00:28;;;;;;;475.13;388.75;;;;;;;;;;4978519;28;20384;-84
2021/05/25 14:02:54;;;;;;;471.75;371.27;;;;;;;;;;4983663;28;20078;-78
2021/05/25 14:05:25;;;;;;;476.35;374.08;;;;;;;;;;4974094;28;20458;-79